Time;durP1;ratioP1;P1;durP2;ratioP2;P2;SDS_P1;SDS_P2;PMS_P1;PMS_P2;Temp;Humidity;BMP_temperature;BMP_pressure;BME280_temperature;BME280_humidity;BME280_pressure;Samples;Min_cycle;Max_cycle;Signal;HPM_P1;HPM_P2
2022/02/21 00:02:18;;;;;;;0.00;0.00;;;;;26.30;99919.00;;;;5109393;28;20040;-76
2022/02/21 00:04:47;;;;;;;0.00;0.00;;;;;26.20;99924.00;;;;5107364;28;20055;-76
2022/02/21 00:07:17;;;;;;;0.00;0.00;;;;;26.10;99939.00;;;;5108578;28;20048;-78
2022/02/21 00:09:46;;;;;;;0.00;0.00;;;;;26.10;99936.00;;;;5108869;28;20043;-77
2022/02/21 00:12:16;;;;;;;0.00;0.00;;;;;26.10;99929.00;;;;5107951;28;20555;-78
2022/02/21 00:14:45;;;;;;;0.00;0.00;;;;;25.90;99939.00;;;;5106657;28;20042;-77
2022/02/21 00:17:14;;;;;;;0.00;0.00;;;;;25.80;99954.00;;;;5108833;28;20411;-78
2022/02/21 00:19:44;;;;;;;0.00;0.00;;;;;25.70;99950.00;;;;5108132;28;20050;-78
2022/02/21 00:22:13;;;;;;;0.00;0.00;;;;;25.50;99969.00;;;;5107635;28;20075;-78
2022/02/21 00:24:43;;;;;;;0.00;0.00;;;;;25.40;100017.00;;;;5108864;28;20044;-78
2022/02/21 00:27:12;;;;;;;0.00;0.00;;;;;25.80;100046.00;;;;5107742;28;20440;-79
2022/02/21 00:29:42;;;;;;;0.00;0.00;;;;;26.30;100060.00;;;;5107146;28;20078;-78
2022/02/21 00:32:11;;;;;;;0.30;0.20;;;;;26.60;100043.00;;;;5108426;28;20067;-75
2022/02/21 00:34:41;;;;;;;0.00;0.00;;;;;26.60;100039.00;;;;5108580;28;20043;-78
2022/02/21 00:37:11;;;;;;;0.00;0.00;;;;;26.50;100047.00;;;;5109199;28;20047;-77
2022/02/21 00:39:40;;;;;;;0.45;0.25;;;;;26.50;100069.00;;;;5108051;28;20039;-77
2022/02/21 00:42:09;;;;;;;0.38;0.38;;;;;26.40;100074.00;;;;5108339;28;20039;-77
2022/02/21 00:44:41;;;;;;;4.95;0.65;;;;;26.40;100070.00;;;;5109214;28;20031;-76
2022/02/21 00:47:11;;;;;;;0.00;0.00;;;;;26.30;100058.00;;;;5108402;28;20044;-78
2022/02/21 00:49:40;;;;;;;0.00;0.00;;;;;26.30;100062.00;;;;5109146;28;20063;-80
2022/02/21 00:52:10;;;;;;;0.17;0.17;;;;;26.30;100094.00;;;;5106439;28;20515;-80
2022/02/21 00:54:40;;;;;;;0.00;0.00;;;;;26.20;100106.00;;;;5090390;28;20124;-78
2022/02/21 00:57:10;;;;;;;0.00;0.00;;;;;26.10;100087.00;;;;5106598;28;20552;-76
2022/02/21 00:59:39;;;;;;;0.00;0.00;;;;;26.10;100084.00;;;;5108290;28;20032;-78
2022/02/21 01:02:08;;;;;;;8.50;7.43;;;;;26.00;100097.00;;;;5108183;28;20079;-77
2022/02/21 01:04:39;;;;;;;0.00;0.00;;;;;26.00;100102.00;;;;5107952;28;20043;-77
2022/02/21 01:07:08;;;;;;;0.00;0.00;;;;;26.00;100121.00;;;;5108165;28;20455;-76
2022/02/21 01:09:38;;;;;;;0.00;0.00;;;;;26.00;100118.00;;;;5108188;28;20046;-75
2022/02/21 01:12:08;;;;;;;0.00;0.00;;;;;26.00;100118.00;;;;5106791;28;20751;-77
2022/02/21 01:14:37;;;;;;;0.00;0.00;;;;;25.90;100116.00;;;;5108050;28;20051;-77
2022/02/21 01:17:07;;;;;;;0.17;0.17;;;;;25.90;100130.00;;;;5107940;28;20126;-78
2022/02/21 01:19:36;;;;;;;0.00;0.00;;;;;25.90;100114.00;;;;5107256;28;20433;-77
2022/02/21 01:22:07;;;;;;;0.00;0.00;;;;;26.00;100144.00;;;;5107533;28;20093;-77
2022/02/21 01:24:38;;;;;;;0.00;0.00;;;;;26.00;100134.00;;;;5107278;28;20132;-78
2022/02/21 01:27:07;;;;;;;0.00;0.00;;;;;25.90;100131.00;;;;5108394;28;20395;-78
2022/02/21 01:29:37;;;;;;;0.00;0.00;;;;;25.90;100125.00;;;;5108846;28;20624;-77
2022/02/21 01:32:08;;;;;;;0.00;0.00;;;;;25.80;100132.00;;;;5107315;28;20475;-76
2022/02/21 01:34:37;;;;;;;0.00;0.00;;;;;25.70;100153.00;;;;5108271;28;20044;-78
2022/02/21 01:37:11;;;;;;;0.00;0.00;;;;;25.60;100156.00;;;;5107080;28;20050;-79
2022/02/21 01:39:41;;;;;;;0.00;0.00;;;;;25.60;100155.00;;;;5107995;28;20440;-78
2022/02/21 01:42:11;;;;;;;0.00;0.00;;;;;25.60;100156.00;;;;5106906;28;20040;-76
2022/02/21 01:44:46;;;;;;;0.00;0.00;;;;;25.60;100135.00;;;;5106683;28;20043;-76
2022/02/21 01:47:21;;;;;;;0.00;0.00;;;;;25.60;100150.00;;;;5106723;28;20130;-77
2022/02/21 01:49:52;;;;;;;0.00;0.00;;;;;25.60;100138.00;;;;5105952;28;20036;-77
2022/02/21 01:52:23;;;;;;;0.05;0.05;;;;;25.50;100161.00;;;;5105729;28;20107;-77
2022/02/21 01:54:53;;;;;;;0.00;0.00;;;;;25.50;100172.00;;;;5108109;28;20414;-76
2022/02/21 01:57:25;;;;;;;0.00;0.00;;;;;25.50;100193.00;;;;5107081;27;20047;-77
2022/02/21 01:59:54;;;;;;;0.00;0.00;;;;;25.50;100204.00;;;;5107313;28;20154;-78
2022/02/21 02:02:24;;;;;;;0.00;0.00;;;;;25.50;100216.00;;;;5089170;28;20050;-78
2022/02/21 02:04:54;;;;;;;0.00;0.00;;;;;25.40;100229.00;;;;5105296;28;20071;-78
2022/02/21 02:07:24;;;;;;;0.00;0.00;;;;;25.60;100213.00;;;;5106290;28;20155;-78
2022/02/21 02:09:53;;;;;;;0.00;0.00;;;;;25.50;100227.00;;;;5106493;28;20122;-78
2022/02/21 02:12:23;;;;;;;0.00;0.00;;;;;25.40;100227.00;;;;5106339;28;20053;-79
2022/02/21 02:14:52;;;;;;;0.00;0.00;;;;;25.20;100243.00;;;;5106014;28;20078;-77
2022/02/21 02:17:23;;;;;;;0.00;0.00;;;;;25.10;100240.00;;;;5105165;28;20058;-77
2022/02/21 02:19:54;;;;;;;0.00;0.00;;;;;25.10;100253.00;;;;5106585;28;20567;-77
2022/02/21 02:22:24;;;;;;;0.00;0.00;;;;;25.20;100279.00;;;;5105688;28;20517;-77
2022/02/21 02:24:54;;;;;;;4.60;1.35;;;;;25.30;100282.00;;;;5104580;28;20051;-77
2022/02/21 02:27:25;;;;;;;0.20;0.20;;;;;25.50;100302.00;;;;5105916;28;20050;-77
2022/02/21 02:29:58;;;;;;;0.00;0.00;;;;;25.40;100309.00;;;;5106295;28;20056;-77
2022/02/21 02:32:29;;;;;;;0.00;0.00;;;;;25.30;100317.00;;;;5107030;28;20411;-76
2022/02/21 02:35:01;;;;;;;0.13;0.13;;;;;25.10;100301.00;;;;5089093;28;20238;-77
2022/02/21 02:37:30;;;;;;;0.00;0.00;;;;;24.90;100317.00;;;;5106936;28;20054;-76
2022/02/21 02:40:00;;;;;;;0.00;0.00;;;;;24.90;100315.00;;;;5105713;28;20051;-78
2022/02/21 02:42:30;;;;;;;0.60;0.35;;;;;24.80;100313.00;;;;5106581;28;20079;-77
2022/02/21 02:44:59;;;;;;;0.00;0.00;;;;;24.70;100337.00;;;;5104514;28;20059;-77
2022/02/21 02:47:28;;;;;;;0.00;0.00;;;;;24.70;100332.00;;;;5106397;28;20099;-78
2022/02/21 02:49:58;;;;;;;0.00;0.00;;;;;24.60;100350.00;;;;5106664;28;20048;-77
2022/02/21 02:52:34;;;;;;;0.85;0.55;;;;;24.50;100352.00;;;;5090053;28;20108;-76
2022/02/21 02:55:04;;;;;;;0.38;0.28;;;;;24.40;100353.00;;;;5107624;28;20040;-76
2022/02/21 02:57:34;;;;;;;0.00;0.00;;;;;24.40;100347.00;;;;5110047;28;20098;-77
2022/02/21 03:00:05;;;;;;;0.00;0.00;;;;;24.30;100368.00;;;;5111069;28;20050;-78
2022/02/21 03:02:41;;;;;;;0.00;0.00;;;;;24.10;100373.00;;;;5109240;28;20100;-77
2022/02/21 03:05:10;;;;;;;0.00;0.00;;;;;24.10;100372.00;;;;5110217;28;20044;-77
2022/02/21 03:07:39;;;;;;;0.00;0.00;;;;;23.90;100390.00;;;;5108386;28;20147;-77
2022/02/21 03:10:09;;;;;;;0.00;0.00;;;;;23.80;100374.00;;;;5110206;28;20503;-76
2022/02/21 03:12:39;;;;;;;0.00;0.00;;;;;23.60;100383.00;;;;5109710;28;20122;-77
2022/02/21 03:15:09;;;;;;;0.00;0.00;;;;;23.50;100378.00;;;;5110504;28;20067;-77
2022/02/21 03:17:39;;;;;;;0.00;0.00;;;;;23.40;100387.00;;;;5108449;28;20048;-77
2022/02/21 03:20:09;;;;;;;0.00;0.00;;;;;23.30;100402.00;;;;5109315;28;20429;-77
2022/02/21 03:22:39;;;;;;;0.00;0.00;;;;;23.40;100377.00;;;;5110253;28;20051;-77
2022/02/21 03:25:09;;;;;;;0.00;0.00;;;;;23.30;100377.00;;;;5110919;28;20063;-78
2022/02/21 03:27:43;;;;;;;0.00;0.00;;;;;23.30;100400.00;;;;5108051;28;20104;-77
2022/02/21 03:30:14;;;;;;;0.00;0.00;;;;;23.30;100401.00;;;;5107982;28;20058;-78
2022/02/21 03:32:44;;;;;;;0.00;0.00;;;;;23.30;100395.00;;;;5108330;28;20044;-78
2022/02/21 03:35:14;;;;;;;0.00;0.00;;;;;23.30;100384.00;;;;5091336;28;20051;-78
2022/02/21 03:37:43;;;;;;;0.98;0.25;;;;;23.30;100363.00;;;;5107952;28;20047;-78
2022/02/21 03:40:14;;;;;;;0.00;0.00;;;;;23.30;100376.00;;;;5108038;28;20525;-77
2022/02/21 03:42:45;;;;;;;0.00;0.00;;;;;23.10;100373.00;;;;5107688;28;20097;-78
2022/02/21 03:45:14;;;;;;;0.00;0.00;;;;;23.20;100367.00;;;;5108840;28;20047;-78
2022/02/21 03:47:44;;;;;;;0.00;0.00;;;;;23.20;100385.00;;;;5109559;28;20155;-78
2022/02/21 03:50:13;;;;;;;0.00;0.00;;;;;23.10;100398.00;;;;5109205;28;20054;-78
2022/02/21 03:52:43;;;;;;;0.00;0.00;;;;;23.00;100375.00;;;;5113341;28;20044;-77
2022/02/21 03:55:13;;;;;;;0.00;0.00;;;;;23.10;100433.00;;;;5096384;28;20053;-77
2022/02/21 03:57:42;;;;;;;0.00;0.00;;;;;23.00;100433.00;;;;5113041;28;20047;-77
2022/02/21 04:00:14;;;;;;;0.00;0.00;;;;;23.00;100428.00;;;;5115284;28;20099;-77
2022/02/21 04:02:44;;;;;;;0.00;0.00;;;;;22.90;100440.00;;;;5110554;28;20039;-76
2022/02/21 04:05:14;;;;;;;0.00;0.00;;;;;22.90;100450.00;;;;5092769;28;20512;-79
2022/02/21 04:07:44;;;;;;;0.00;0.00;;;;;22.90;100459.00;;;;5120047;28;20106;-77
2022/02/21 04:10:15;;;;;;;0.10;0.10;;;;;22.80;100471.00;;;;5124865;28;20455;-78
2022/02/21 04:12:46;;;;;;;0.00;0.00;;;;;22.80;100456.00;;;;5129320;28;20240;-78
2022/02/21 04:15:15;;;;;;;0.00;0.00;;;;;22.80;100473.00;;;;5133569;28;20042;-77
2022/02/21 04:17:50;;;;;;;0.00;0.00;;;;;22.70;100476.00;;;;5132381;28;20036;-78
2022/02/21 04:20:23;;;;;;;0.00;0.00;;;;;22.60;100468.00;;;;5131361;28;20054;-78
2022/02/21 04:22:53;;;;;;;0.00;0.00;;;;;22.50;100480.00;;;;5117159;28;20063;-78
2022/02/21 04:25:23;;;;;;;0.00;0.00;;;;;22.30;100472.00;;;;5108601;28;20044;-78
2022/02/21 04:27:54;;;;;;;0.00;0.00;;;;;22.20;100477.00;;;;5109113;28;20047;-78
2022/02/21 04:30:26;;;;;;;0.00;0.00;;;;;22.10;100462.00;;;;5090759;28;20525;-79
2022/02/21 04:32:56;;;;;;;0.00;0.00;;;;;22.00;100449.00;;;;5108147;28;20040;-79
2022/02/21 04:35:28;;;;;;;0.00;0.00;;;;;21.90;100442.00;;;;5108843;28;20043;-79
2022/02/21 04:37:58;;;;;;;0.00;0.00;;;;;21.80;100452.00;;;;5108954;28;20625;-80
2022/02/21 04:40:29;;;;;;;0.00;0.00;;;;;21.80;100437.00;;;;5109835;28;20043;-80
2022/02/21 04:42:59;;;;;;;0.00;0.00;;;;;21.70;100441.00;;;;5111124;28;20051;-81
2022/02/21 04:45:29;;;;;;;0.00;0.00;;;;;21.70;100419.00;;;;5108393;28;20051;-80
2022/02/21 04:47:59;;;;;;;0.00;0.00;;;;;21.60;100430.00;;;;5107252;28;20047;-80
2022/02/21 04:50:29;;;;;;;0.00;0.00;;;;;21.50;100414.00;;;;5109165;28;20068;-81
2022/02/21 04:52:58;;;;;;;0.00;0.00;;;;;21.40;100392.00;;;;5106429;28;20587;-81
2022/02/21 04:55:28;;;;;;;0.00;0.00;;;;;21.40;100402.00;;;;5106039;28;20054;-80
2022/02/21 04:57:57;;;;;;;0.00;0.00;;;;;21.30;100399.00;;;;5108109;28;20051;-82
2022/02/21 05:00:27;;;;;;;0.00;0.00;;;;;21.30;100388.00;;;;5108588;27;20069;-85
2022/02/21 05:02:56;;;;;;;0.00;0.00;;;;;21.30;100380.00;;;;5107211;28;20035;-81
2022/02/21 05:05:26;;;;;;;0.00;0.00;;;;;21.30;100401.00;;;;5106426;28;20479;-81
2022/02/21 05:07:55;;;;;;;0.00;0.00;;;;;21.20;100399.00;;;;5106148;28;20081;-81
2022/02/21 05:10:26;;;;;;;0.00;0.00;;;;;21.30;100397.00;;;;5107156;28;20048;-80
2022/02/21 05:12:55;;;;;;;0.00;0.00;;;;;21.50;100421.00;;;;5107634;28;20128;-79
2022/02/21 05:15:25;;;;;;;0.00;0.00;;;;;21.40;100426.00;;;;5107403;28;20044;-80
2022/02/21 05:17:55;;;;;;;0.00;0.00;;;;;21.40;100414.00;;;;5089079;28;20101;-80
2022/02/21 05:20:25;;;;;;;0.00;0.00;;;;;21.30;100385.00;;;;5106171;28;20418;-80
2022/02/21 05:22:56;;;;;;;0.00;0.00;;;;;21.20;100370.00;;;;5089221;28;20059;-80
2022/02/21 05:25:25;;;;;;;;;;;;;21.10;100373.00;;;;5108142;28;20036;-80
2022/02/21 05:27:54;;;;;;;0.00;0.00;;;;;21.00;100348.00;;;;5089449;28;19923;-80
2022/02/21 05:30:24;;;;;;;0.00;0.00;;;;;21.00;100359.00;;;;5105820;28;20115;-80
2022/02/21 05:32:54;;;;;;;0.00;0.00;;;;;20.90;100357.00;;;;5105938;28;20781;-80
2022/02/21 05:35:23;;;;;;;0.00;0.00;;;;;21.00;100360.00;;;;5106522;28;20431;-80
2022/02/21 05:37:53;;;;;;;0.00;0.00;;;;;20.90;100348.00;;;;5106335;28;20062;-80
2022/02/21 05:40:22;;;;;;;0.00;0.00;;;;;20.90;100369.00;;;;5105611;28;20050;-80
2022/02/21 05:42:52;;;;;;;0.00;0.00;;;;;21.00;100375.00;;;;5107775;28;20039;-80
2022/02/21 05:45:21;;;;;;;0.00;0.00;;;;;21.20;100371.00;;;;5105590;28;20594;-80
2022/02/21 05:47:51;;;;;;;0.00;0.00;;;;;21.20;100368.00;;;;5104748;28;20464;-80
2022/02/21 05:50:20;;;;;;;0.00;0.00;;;;;21.10;100351.00;;;;5105054;28;20342;-80
2022/02/21 05:52:50;;;;;;;0.00;0.00;;;;;21.10;100341.00;;;;5089644;28;20502;-81
2022/02/21 05:55:19;;;;;;;0.00;0.00;;;;;21.10;100346.00;;;;5105571;28;20552;-80
2022/02/21 05:57:48;;;;;;;0.00;0.00;;;;;21.00;100337.00;;;;5104841;28;20093;-81
2022/02/21 06:00:18;;;;;;;0.00;0.00;;;;;21.00;100352.00;;;;5105219;28;20426;-81
2022/02/21 06:02:47;;;;;;;0.00;0.00;;;;;21.10;100350.00;;;;5106549;28;20043;-81
2022/02/21 06:05:17;;;;;;;0.00;0.00;;;;;21.00;100359.00;;;;5106141;28;20529;-81
2022/02/21 06:07:46;;;;;;;0.00;0.00;;;;;21.00;100344.00;;;;5105516;28;20088;-81
2022/02/21 06:10:15;;;;;;;0.00;0.00;;;;;21.10;100335.00;;;;5105485;28;20430;-80
2022/02/21 06:12:45;;;;;;;0.00;0.00;;;;;21.10;100347.00;;;;5105563;28;20036;-81
2022/02/21 06:15:14;;;;;;;0.00;0.00;;;;;21.10;100332.00;;;;5105360;28;20052;-80
2022/02/21 06:17:44;;;;;;;0.00;0.00;;;;;21.10;100370.00;;;;5088643;28;20046;-80
2022/02/21 06:20:13;;;;;;;0.00;0.00;;;;;21.10;100371.00;;;;5088474;28;20464;-80
2022/02/21 06:22:43;;;;;;;0.00;0.00;;;;;21.20;100379.00;;;;5106417;28;20510;-80
2022/02/21 06:25:12;;;;;;;0.00;0.00;;;;;21.30;100375.00;;;;5104640;28;20051;-81
2022/02/21 06:27:41;;;;;;;0.00;0.00;;;;;21.30;100365.00;;;;5104748;28;20054;-81
2022/02/21 06:30:11;;;;;;;0.00;0.00;;;;;21.30;100383.00;;;;5092174;28;20113;-81
2022/02/21 06:32:41;;;;;;;0.00;0.00;;;;;21.20;100354.00;;;;5110372;28;20150;-81
2022/02/21 06:35:11;;;;;;;0.00;0.00;;;;;21.10;100335.00;;;;5109323;28;20120;-83
2022/02/21 06:37:49;;;;;;;0.00;0.00;;;;;21.10;100309.00;;;;5109502;28;20579;-81
2022/02/21 06:40:18;;;;;;;0.00;0.00;;;;;21.10;100325.00;;;;5109456;28;20048;-82
2022/02/21 06:42:48;;;;;;;0.00;0.00;;;;;21.00;100303.00;;;;5111166;28;20047;-82
2022/02/21 06:45:18;;;;;;;0.00;0.00;;;;;21.10;100292.00;;;;5091741;28;20044;-82
2022/02/21 06:47:53;;;;;;;0.00;0.00;;;;;21.00;100270.00;;;;5109032;28;20044;-82
2022/02/21 06:50:23;;;;;;;0.00;0.00;;;;;20.90;100272.00;;;;5110356;28;20050;-81
2022/02/21 06:52:53;;;;;;;0.00;0.00;;;;;20.90;100276.00;;;;5109164;28;20043;-82
2022/02/21 06:55:23;;;;;;;0.00;0.00;;;;;20.80;100274.00;;;;5110673;28;20039;-81
2022/02/21 06:57:54;;;;;;;0.00;0.00;;;;;20.80;100263.00;;;;5108868;28;20044;-80
2022/02/21 07:00:23;;;;;;;0.00;0.00;;;;;20.90;100293.00;;;;5092380;28;20303;-79
2022/02/21 07:02:53;;;;;;;0.00;0.00;;;;;20.90;100288.00;;;;5108866;28;20062;-79
2022/02/21 07:05:23;;;;;;;0.00;0.00;;;;;20.90;100288.00;;;;5110464;27;20478;-80
2022/02/21 07:07:52;;;;;;;0.00;0.00;;;;;20.90;100285.00;;;;5110321;28;20429;-80
2022/02/21 07:10:23;;;;;;;0.00;0.00;;;;;20.90;100313.00;;;;5110839;28;20040;-79
2022/02/21 07:12:53;;;;;;;0.00;0.00;;;;;20.90;100305.00;;;;5109445;28;20047;-80
2022/02/21 07:15:24;;;;;;;0.00;0.00;;;;;20.90;100303.00;;;;5113109;28;20047;-79
2022/02/21 07:17:53;;;;;;;0.00;0.00;;;;;20.90;100289.00;;;;5113049;28;20391;-80
2022/02/21 07:20:25;;;;;;;0.00;0.00;;;;;20.90;100306.00;;;;5111040;28;20077;-80
2022/02/21 07:22:55;;;;;;;0.00;0.00;;;;;20.90;100298.00;;;;5113227;28;20063;-80
2022/02/21 07:25:25;;;;;;;0.00;0.00;;;;;20.80;100296.00;;;;5115072;28;20043;-79
2022/02/21 07:27:54;;;;;;;0.00;0.00;;;;;20.80;100288.00;;;;5114919;28;20039;-80
2022/02/21 07:30:26;;;;;;;0.00;0.00;;;;;20.80;100269.00;;;;5114259;28;20044;-80
2022/02/21 07:32:57;;;;;;;0.00;0.00;;;;;20.70;100266.00;;;;5115130;28;20051;-81
2022/02/21 07:35:27;;;;;;;0.00;0.00;;;;;20.70;100270.00;;;;5115249;28;20036;-81
2022/02/21 07:37:56;;;;;;;0.00;0.00;;;;;20.60;100268.00;;;;5115873;28;20749;-81
2022/02/21 07:40:26;;;;;;;0.00;0.00;;;;;20.60;100244.00;;;;5097573;28;20051;-81
2022/02/21 07:42:55;;;;;;;0.00;0.00;;;;;20.60;100251.00;;;;5114645;28;20035;-80
2022/02/21 07:45:27;;;;;;;0.00;0.00;;;;;20.50;100260.00;;;;5099020;28;20074;-82
2022/02/21 07:48:00;;;;;;;0.00;0.00;;;;;20.50;100255.00;;;;5115284;28;20059;-79
2022/02/21 07:50:33;;;;;;;0.00;0.00;;;;;20.40;100275.00;;;;5098815;28;20548;-79
2022/02/21 07:53:03;;;;;;;0.00;0.00;;;;;20.50;100257.00;;;;5113975;28;20047;-79
2022/02/21 07:55:33;;;;;;;0.00;0.00;;;;;20.50;100250.00;;;;5114740;28;20051;-79
2022/02/21 07:58:03;;;;;;;0.00;0.00;;;;;20.50;100255.00;;;;5114980;28;20044;-79
2022/02/21 08:00:32;;;;;;;0.00;0.00;;;;;20.50;100258.00;;;;5114375;28;20047;-80
2022/02/21 08:03:02;;;;;;;0.00;0.00;;;;;20.50;100270.00;;;;5115317;28;20100;-79
2022/02/21 08:05:31;;;;;;;0.00;0.00;;;;;20.50;100255.00;;;;5112753;28;20055;-79
2022/02/21 08:08:00;;;;;;;0.00;0.00;;;;;20.60;100234.00;;;;5114086;28;20047;-79
2022/02/21 08:10:30;;;;;;;0.00;0.00;;;;;20.60;100259.00;;;;5096439;28;20051;-79
2022/02/21 08:12:59;;;;;;;0.00;0.00;;;;;20.60;100260.00;;;;5096279;28;20047;-80
2022/02/21 08:15:29;;;;;;;0.00;0.00;;;;;20.60;100260.00;;;;5112671;28;20048;-79
2022/02/21 08:17:59;;;;;;;0.00;0.00;;;;;20.60;100268.00;;;;5093375;28;20043;-80
2022/02/21 08:20:28;;;;;;;0.00;0.00;;;;;20.60;100254.00;;;;5113857;28;20035;-79
2022/02/21 08:22:57;;;;;;;0.00;0.00;;;;;20.60;100267.00;;;;5109347;28;20052;-79
2022/02/21 08:25:27;;;;;;;0.00;0.00;;;;;20.50;100278.00;;;;5110408;28;20105;-79
2022/02/21 08:27:57;;;;;;;0.00;0.00;;;;;20.50;100287.00;;;;5110975;28;20059;-79
2022/02/21 08:30:26;;;;;;;0.00;0.00;;;;;20.50;100271.00;;;;5110475;28;20039;-79
2022/02/21 08:32:56;;;;;;;0.00;0.00;;;;;20.50;100270.00;;;;5094143;28;20052;-80
2022/02/21 08:35:26;;;;;;;0.00;0.00;;;;;20.50;100280.00;;;;5109529;28;20071;-79
2022/02/21 08:37:56;;;;;;;0.00;0.00;;;;;20.50;100288.00;;;;5108455;28;20433;-79
2022/02/21 08:40:32;;;;;;;0.00;0.00;;;;;20.40;100289.00;;;;5109053;28;20118;-80
2022/02/21 08:43:02;;;;;;;0.00;0.00;;;;;20.50;100281.00;;;;5109466;28;20050;-79
2022/02/21 08:45:31;;;;;;;0.00;0.00;;;;;20.50;100288.00;;;;5109245;28;20048;-79
2022/02/21 08:48:01;;;;;;;0.00;0.00;;;;;20.40;100296.00;;;;5110726;28;20054;-80
2022/02/21 08:50:30;;;;;;;0.00;0.00;;;;;20.50;100300.00;;;;5108483;28;20069;-80
2022/02/21 08:53:00;;;;;;;0.00;0.00;;;;;20.50;100305.00;;;;5107763;28;20490;-80
2022/02/21 08:55:29;;;;;;;0.00;0.00;;;;;20.50;100284.00;;;;5108644;28;20052;-79
2022/02/21 08:57:59;;;;;;;0.00;0.00;;;;;20.50;100305.00;;;;5109117;28;20565;-80
2022/02/21 09:00:28;;;;;;;0.00;0.00;;;;;20.50;100324.00;;;;5108535;28;20052;-80
2022/02/21 09:02:58;;;;;;;0.00;0.00;;;;;20.50;100298.00;;;;5109216;28;20040;-79
2022/02/21 09:05:35;;;;;;;0.00;0.00;;;;;20.50;100316.00;;;;5108110;28;20075;-80
2022/02/21 09:08:05;;;;;;;0.00;0.00;;;;;20.50;100310.00;;;;5108900;28;20052;-80
2022/02/21 09:10:35;;;;;;;0.00;0.00;;;;;20.50;100324.00;;;;5107541;28;20444;-79
2022/02/21 09:13:04;;;;;;;0.00;0.00;;;;;20.50;100330.00;;;;5109253;28;20525;-79
2022/02/21 09:15:34;;;;;;;0.00;0.00;;;;;20.50;100320.00;;;;5108968;28;20433;-79
2022/02/21 09:18:05;;;;;;;0.00;0.00;;;;;20.50;100346.00;;;;5111177;28;20040;-79
2022/02/21 09:20:38;;;;;;;0.00;0.00;;;;;20.40;100330.00;;;;5110097;28;20039;-79
2022/02/21 09:23:07;;;;;;;0.00;0.00;;;;;20.50;100344.00;;;;5108427;28;20097;-80
2022/02/21 09:25:42;;;;;;;0.00;0.00;;;;;20.50;100350.00;;;;5107939;28;20057;-82
2022/02/21 09:28:12;;;;;;;0.00;0.00;;;;;20.50;100341.00;;;;5107118;28;20054;-80
2022/02/21 09:30:42;;;;;;;0.00;0.00;;;;;20.50;100342.00;;;;5107199;28;20051;-81
2022/02/21 09:33:11;;;;;;;0.00;0.00;;;;;20.50;100358.00;;;;5109049;28;20048;-80
2022/02/21 09:35:41;;;;;;;0.00;0.00;;;;;20.50;100346.00;;;;5108875;28;20078;-80
2022/02/21 09:38:10;;;;;;;0.00;0.00;;;;;20.50;100335.00;;;;5106474;28;20506;-80
2022/02/21 09:40:41;;;;;;;0.00;0.00;;;;;20.40;100336.00;;;;5106541;28;20056;-80
2022/02/21 09:43:15;;;;;;;0.00;0.00;;;;;20.30;100315.00;;;;5106483;28;20051;-80
2022/02/21 09:45:45;;;;;;;0.00;0.00;;;;;20.40;100324.00;;;;5106314;28;20732;-80
2022/02/21 09:48:16;;;;;;;0.00;0.00;;;;;20.30;100343.00;;;;5105805;28;20047;-80
2022/02/21 09:50:50;;;;;;;0.00;0.00;;;;;20.30;100335.00;;;;5089611;28;20071;-80
2022/02/21 09:53:19;;;;;;;0.00;0.00;;;;;20.30;100346.00;;;;5105449;28;20090;-80
2022/02/21 09:55:49;;;;;;;0.00;0.00;;;;;20.30;100355.00;;;;5104996;28;20052;-79
2022/02/21 09:58:18;;;;;;;0.00;0.00;;;;;20.30;100339.00;;;;5089884;28;20048;-80
2022/02/21 10:00:49;;;;;;;0.00;0.00;;;;;20.30;100348.00;;;;5108116;28;20063;-81
2022/02/21 10:03:39;;;;;;;0.00;0.00;;;;;20.30;100350.00;;;;5106700;28;20517;-79
2022/02/21 10:06:14;;;;;;;0.00;0.00;;;;;20.30;100356.00;;;;5089229;28;20051;-79
2022/02/21 10:09:10;;;;;;;0.00;0.00;;;;;20.40;100362.00;;;;5107198;28;20036;-79
2022/02/21 10:11:42;;;;;;;0.00;0.00;;;;;20.40;100358.00;;;;5107457;28;20135;-80
2022/02/21 10:14:18;;;;;;;0.00;0.00;;;;;20.40;100375.00;;;;5106607;28;20403;-80
2022/02/21 10:16:52;;;;;;;0.00;0.00;;;;;20.40;100376.00;;;;5088515;28;20078;-81
2022/02/21 10:19:24;;;;;;;0.00;0.00;;;;;20.50;100361.00;;;;5106901;28;20043;-81
2022/02/21 10:22:11;;;;;;;0.00;0.00;;;;;20.50;100367.00;;;;5105177;28;20717;-80
2022/02/21 10:24:47;;;;;;;0.00;0.00;;;;;20.50;100361.00;;;;5104864;28;20126;-80
2022/02/21 10:27:23;;;;;;;0.00;0.00;;;;;20.60;100358.00;;;;5105023;28;20039;-80
2022/02/21 10:30:02;;;;;;;0.00;0.00;;;;;20.60;100372.00;;;;5104685;28;20125;-81
2022/02/21 10:32:52;;;;;;;0.00;0.00;;;;;20.60;100384.00;;;;5105553;28;20044;-79
2022/02/21 10:35:30;;;;;;;0.00;0.00;;;;;20.60;100370.00;;;;5104925;28;20490;-80
2022/02/21 10:38:03;;;;;;;0.00;0.00;;;;;20.60;100356.00;;;;5105111;28;20039;-79
2022/02/21 10:40:38;;;;;;;0.00;0.00;;;;;20.70;100371.00;;;;5106835;28;20039;-81
2022/02/21 10:43:17;;;;;;;0.00;0.00;;;;;20.70;100377.00;;;;5107164;28;20040;-79
2022/02/21 10:45:48;;;;;;;0.00;0.00;;;;;20.70;100389.00;;;;5105075;28;20837;-79
2022/02/21 10:48:23;;;;;;;0.00;0.00;;;;;20.70;100387.00;;;;5106735;28;20591;-80
2022/02/21 10:50:57;;;;;;;0.00;0.00;;;;;20.70;100410.00;;;;5106314;28;20044;-79
2022/02/21 10:53:41;;;;;;;0.00;0.00;;;;;20.70;100397.00;;;;5088485;28;20100;-79
2022/02/21 10:56:12;;;;;;;0.00;0.00;;;;;20.70;100394.00;;;;5104377;28;20067;-79
2022/02/21 10:58:42;;;;;;;0.00;0.00;;;;;20.70;100404.00;;;;5106207;28;20028;-79
2022/02/21 11:01:12;;;;;;;0.00;0.00;;;;;20.80;100398.00;;;;5106153;28;20051;-79
2022/02/21 11:03:42;;;;;;;0.00;0.00;;;;;21.00;100386.00;;;;5107093;28;20052;-79
2022/02/21 11:06:12;;;;;;;0.00;0.00;;;;;21.10;100391.00;;;;5107010;28;20506;-80
2022/02/21 11:08:42;;;;;;;0.00;0.00;;;;;21.10;100400.00;;;;5105157;28;20043;-79
2022/02/21 11:11:12;;;;;;;0.00;0.00;;;;;21.30;100423.00;;;;5106679;28;20061;-79
2022/02/21 11:13:44;;;;;;;;;;;;;21.30;100431.00;;;;5106569;28;20089;-78
2022/02/21 11:16:15;;;;;;;0.00;0.00;;;;;21.40;100413.00;;;;5090472;28;19924;-79
2022/02/21 11:18:46;;;;;;;0.00;0.00;;;;;21.40;100426.00;;;;5109205;28;20048;-80
2022/02/21 11:21:16;;;;;;;0.00;0.00;;;;;21.30;100432.00;;;;5110064;28;20047;-79
2022/02/21 11:23:46;;;;;;;0.00;0.00;;;;;21.30;100422.00;;;;5110603;28;20130;-79
2022/02/21 11:26:23;;;;;;;0.00;0.00;;;;;21.30;100436.00;;;;5108942;28;20438;-79
2022/02/21 11:29:05;;;;;;;0.00;0.00;;;;;21.30;100455.00;;;;5109032;28;20048;-79
2022/02/21 11:31:40;;;;;;;0.00;0.00;;;;;21.20;100441.00;;;;5107997;28;20053;-79
2022/02/21 11:34:10;;;;;;;0.00;0.00;;;;;21.20;100476.00;;;;5108643;28;20059;-79
2022/02/21 11:36:49;;;;;;;0.00;0.00;;;;;21.20;100466.00;;;;5108921;28;20048;-79
2022/02/21 11:39:24;;;;;;;0.00;0.00;;;;;21.20;100485.00;;;;5110052;28;20043;-80
2022/02/21 11:42:19;;;;;;;0.00;0.00;;;;;21.30;100486.00;;;;5108385;28;20059;-79
2022/02/21 11:44:53;;;;;;;0.00;0.00;;;;;21.30;100496.00;;;;5110254;28;20036;-80
2022/02/21 11:47:35;;;;;;;0.00;0.00;;;;;21.40;100529.00;;;;5108330;28;20452;-79
2022/02/21 11:50:34;;;;;;;0.00;0.00;;;;;21.30;100533.00;;;;5109750;28;20089;-81
2022/02/21 11:53:29;;;;;;;0.00;0.00;;;;;21.30;100544.00;;;;5091771;28;20061;-80
2022/02/21 11:56:03;;;;;;;0.00;0.00;;;;;21.30;100563.00;;;;5091514;28;20091;-81
2022/02/21 11:58:36;;;;;;;0.00;0.00;;;;;21.30;100564.00;;;;5108502;28;20063;-80
2022/02/21 12:01:18;;;;;;;0.00;0.00;;;;;21.30;100593.00;;;;5108413;28;20048;-80
2022/02/21 12:04:15;;;;;;;0.00;0.00;;;;;21.20;100610.00;;;;5107839;28;20048;-81
2022/02/21 12:06:51;;;;;;;0.00;0.00;;;;;21.20;100608.00;;;;5109138;28;20118;-81
2022/02/21 12:09:21;;;;;;;0.00;0.00;;;;;21.30;100592.00;;;;5107492;28;20043;-82
2022/02/21 12:11:51;;;;;;;0.00;0.00;;;;;21.30;100578.00;;;;5109120;28;20520;-82
2022/02/21 12:14:21;;;;;;;0.00;0.00;;;;;21.50;100594.00;;;;5090891;28;20427;-83
2022/02/21 12:17:03;;;;;;;0.00;0.00;;;;;21.60;100590.00;;;;5107786;28;20060;-82
2022/02/21 12:19:36;;;;;;;0.00;0.00;;;;;21.70;100581.00;;;;5090265;28;20048;-82
2022/02/21 12:22:12;;;;;;;0.00;0.00;;;;;21.90;100589.00;;;;5107491;28;20058;-81
2022/02/21 12:25:10;;;;;;;0.00;0.00;;;;;22.20;100577.00;;;;5106964;28;20051;-82
2022/02/21 12:28:17;;;;;;;0.00;0.00;;;;;22.30;100587.00;;;;5108831;28;20027;-81
2022/02/21 12:30:47;;;;;;;0.00;0.00;;;;;22.30;100583.00;;;;5107667;28;20537;-81